Time;durP1;ratioP1;P1;durP2;ratioP2;P2;SDS_P1;SDS_P2;PMS_P1;PMS_P2;Temp;Humidity;BMP_temperature;BMP_pressure;BME280_temperature;BME280_humidity;BME280_pressure;Samples;Min_cycle;Max_cycle;Signal;HPM_P1;HPM_P2
2022/04/16 00:00:38;;;;;;;3.38;1.90;;;21.20;46.10;;;;;;5989949;29;20448;-71
2022/04/16 00:03:41;;;;;;;6.10;1.70;;;21.20;46.10;;;;;;5983868;29;20488;-71
2022/04/16 00:06:42;;;;;;;4.60;2.28;;;21.20;46.20;;;;;;5973668;29;20039;-71
2022/04/16 00:09:43;;;;;;;3.05;1.58;;;21.10;46.20;;;;;;5978021;29;20035;-71
2022/04/16 00:12:44;;;;;;;15.23;1.70;;;21.10;46.90;;;;;;5980769;29;20046;-71
2022/04/16 00:15:49;;;;;;;6.63;1.98;;;21.00;46.30;;;;;;5966338;29;20137;-71
2022/04/16 00:18:50;;;;;;;8.10;2.22;;;21.10;46.30;;;;;;5980910;29;20074;-71
2022/04/16 00:21:51;;;;;;;3.65;1.80;;;21.00;46.30;;;;;;5984365;29;20038;-71
2022/04/16 00:24:52;;;;;;;6.85;2.05;;;21.00;46.50;;;;;;5980023;29;20034;-71
2022/04/16 00:27:54;;;;;;;4.18;1.77;;;21.00;46.30;;;;;;5979188;29;20074;-71
2022/04/16 00:30:56;;;;;;;8.75;2.20;;;21.00;46.30;;;;;;5986932;29;20465;-71
2022/04/16 00:33:57;;;;;;;9.00;1.85;;;21.10;46.50;;;;;;5988152;29;20042;-71
2022/04/16 00:36:58;;;;;;;5.78;2.15;;;21.00;47.10;;;;;;5979132;29;20049;-71
2022/04/16 00:39:59;;;;;;;8.57;2.08;;;21.00;46.60;;;;;;5964873;29;20045;-71
2022/04/16 00:43:02;;;;;;;8.95;2.55;;;20.90;46.60;;;;;;5977631;29;20046;-71
2022/04/16 00:46:03;;;;;;;8.13;2.70;;;20.90;46.70;;;;;;5976435;29;20050;-71
2022/04/16 00:49:04;;;;;;;4.72;1.75;;;20.90;46.80;;;;;;5975629;29;20046;-71
2022/04/16 00:52:08;;;;;;;8.38;1.90;;;20.80;46.90;;;;;;5963499;29;20049;-71
2022/04/16 00:55:10;;;;;;;5.05;2.05;;;20.80;47.00;;;;;;5978748;29;20046;-71
2022/04/16 00:58:11;;;;;;;3.80;1.85;;;20.80;47.00;;;;;;5968610;29;20331;-70
2022/04/16 01:01:12;;;;;;;7.05;2.45;;;20.70;47.10;;;;;;5982793;29;20540;-71
2022/04/16 01:04:13;;;;;;;5.47;2.50;;;20.70;47.20;;;;;;5982472;29;20175;-71
2022/04/16 01:07:24;;;;;;;5.10;1.95;;;20.70;47.30;;;;;;5967688;29;20725;-71
2022/04/16 01:10:29;;;;;;;14.00;2.28;;;20.60;47.40;;;;;;5982138;29;20468;-71
2022/04/16 01:13:30;;;;;;;3.33;1.75;;;20.60;47.60;;;;;;5964429;29;20053;-71
2022/04/16 01:16:34;;;;;;;8.73;2.10;;;20.50;47.70;;;;;;5972058;29;20042;-71
2022/04/16 01:19:37;;;;;;;10.38;2.25;;;20.40;47.80;;;;;;5970710;29;20050;-71
2022/04/16 01:22:39;;;;;;;10.80;2.10;;;20.40;48.00;;;;;;5973018;29;20103;-71
2022/04/16 01:25:42;;;;;;;8.07;2.30;;;20.30;48.00;;;;;;5957680;29;20047;-71
2022/04/16 01:28:43;;;;;;;5.45;2.00;;;20.20;48.10;;;;;;5972408;29;20054;-71
2022/04/16 01:31:45;;;;;;;11.05;3.10;;;20.10;48.30;;;;;;5970746;29;20543;-71
2022/04/16 01:34:46;;;;;;;8.63;2.47;;;20.10;49.20;;;;;;5972905;29;20062;-71
2022/04/16 01:37:47;;;;;;;9.93;2.63;;;20.00;48.70;;;;;;5956431;29;20069;-70
2022/04/16 01:40:48;;;;;;;6.97;2.47;;;20.00;48.90;;;;;;5969408;29;20744;-70
2022/04/16 01:43:49;;;;;;;4.97;2.15;;;19.90;49.00;;;;;;5956011;29;20055;-71
2022/04/16 01:46:50;;;;;;;5.72;2.08;;;19.90;49.20;;;;;;5971568;29;20050;-71
2022/04/16 01:49:51;;;;;;;4.30;1.85;;;19.90;49.20;;;;;;5953842;29;20383;-70
2022/04/16 01:52:53;;;;;;;6.03;2.55;;;19.80;49.90;;;;;;5972946;29;20039;-70
2022/04/16 01:55:54;;;;;;;10.25;2.33;;;19.80;49.40;;;;;;5972452;29;20404;-70
2022/04/16 01:58:55;;;;;;;7.97;2.10;;;19.70;49.50;;;;;;5956361;29;20054;-70
2022/04/16 02:01:58;;;;;;;10.98;2.53;;;19.70;50.20;;;;;;5971908;29;20087;-70
2022/04/16 02:04:59;;;;;;;6.65;2.15;;;19.60;49.60;;;;;;5974858;29;20034;-70
2022/04/16 02:08:00;;;;;;;5.65;2.05;;;19.60;49.70;;;;;;5977275;29;20042;-70
2022/04/16 02:11:01;;;;;;;5.05;2.10;;;19.60;49.90;;;;;;5973709;29;20419;-71
2022/04/16 02:14:02;;;;;;;5.95;2.15;;;19.50;50.00;;;;;;5975544;29;20059;-69
2022/04/16 02:17:03;;;;;;;4.35;2.35;;;19.40;50.10;;;;;;5979503;29;20034;-70
2022/04/16 02:20:09;;;;;;;11.25;2.83;;;19.40;50.20;;;;;;5962891;29;20357;-70
2022/04/16 02:23:10;;;;;;;3.83;2.10;;;19.40;50.30;;;;;;5947176;29;20039;-70
2022/04/16 02:26:11;;;;;;;9.43;2.28;;;19.30;50.40;;;;;;5960861;29;20042;-70
2022/04/16 02:29:14;;;;;;;4.88;2.10;;;19.30;50.60;;;;;;5976621;29;20043;-70
2022/04/16 02:32:15;;;;;;;3.92;2.10;;;19.30;50.70;;;;;;5972075;29;20038;-70
2022/04/16 02:35:17;;;;;;;7.93;2.25;;;19.20;50.80;;;;;;5960954;29;20039;-70
2022/04/16 02:38:18;;;;;;;4.05;1.98;;;19.30;50.90;;;;;;5960165;29;20039;-70
2022/04/16 02:41:19;;;;;;;5.90;2.13;;;19.20;50.80;;;;;;5959635;29;20051;-70
2022/04/16 02:47:40;;;;;;;9.75;2.72;;;19.20;51.10;;;;;;5972955;29;20051;-69
2022/04/16 02:50:41;;;;;;;4.78;2.60;;;19.20;51.10;;;;;;5963505;29;20107;-70
2022/04/16 02:53:42;;;;;;;7.05;2.25;;;19.10;51.10;;;;;;5972455;29;20039;-72
2022/04/16 02:56:43;;;;;;;7.28;2.30;;;19.10;51.20;;;;;;5973958;29;20054;-70
2022/04/16 02:59:46;;;;;;;4.25;2.40;;;19.00;51.30;;;;;;5976173;29;20059;-70
2022/04/16 03:02:49;;;;;;;4.80;2.65;;;19.00;51.40;;;;;;5974797;29;20335;-70
2022/04/16 03:05:50;;;;;;;22.67;3.22;;;19.00;51.40;;;;;;5973593;29;20039;-70
2022/04/16 03:08:51;;;;;;;13.80;2.58;;;19.00;51.60;;;;;;5958979;29;20066;-70
2022/04/16 03:11:52;;;;;;;14.13;3.08;;;18.90;52.30;;;;;;5977232;29;20143;-70
2022/04/16 03:18:13;;;;;;;4.57;2.45;;;18.90;51.80;;;;;;5973886;29;20042;-70
2022/04/16 03:21:14;;;;;;;3.95;2.35;;;18.90;51.80;;;;;;5974632;29;20050;-70
2022/04/16 03:24:18;;;;;;;14.02;2.80;;;18.90;51.80;;;;;;5956822;29;20046;-70
2022/04/16 03:27:19;;;;;;;5.22;2.60;;;18.90;51.90;;;;;;5957786;29;20058;-70
2022/04/16 03:30:20;;;;;;;14.15;3.03;;;18.90;51.90;;;;;;5972720;29;20038;-70
2022/04/16 03:33:21;;;;;;;4.13;2.08;;;18.80;51.80;;;;;;5972482;29;20119;-70
2022/04/16 03:36:22;;;;;;;4.97;2.35;;;18.80;51.90;;;;;;5974645;29;20038;-70
2022/04/16 03:39:24;;;;;;;6.82;2.45;;;18.80;52.00;;;;;;5955507;29;20483;-70
2022/04/16 03:42:24;;;;;;;7.95;3.08;;;18.80;52.00;;;;;;5961421;29;20068;-70
2022/04/16 03:45:37;;;;;;;6.80;2.67;;;18.70;52.00;;;;;;5972503;29;20050;-70
2022/04/16 03:48:38;;;;;;;5.30;2.60;;;18.70;52.10;;;;;;5971637;29;20042;-70
2022/04/16 03:51:39;;;;;;;8.00;2.50;;;18.70;52.30;;;;;;5957660;29;20062;-70
2022/04/16 04:01:19;;;;;;;6.75;2.67;;;18.70;52.80;;;;;;5973133;29;20034;-70
2022/04/16 04:04:20;;;;;;;4.10;2.55;;;18.70;53.00;;;;;;5974322;29;20074;-70
2022/04/16 04:07:21;;;;;;;12.20;3.33;;;18.60;53.10;;;;;;5974279;29;20131;-71
2022/04/16 04:10:22;;;;;;;8.00;3.05;;;18.60;53.30;;;;;;5971725;29;20355;-70
2022/04/16 04:13:24;;;;;;;7.93;3.03;;;18.60;53.40;;;;;;5973418;29;20046;-70
2022/04/16 04:16:25;;;;;;;6.93;3.17;;;18.50;53.40;;;;;;5966438;29;20049;-71
2022/04/16 04:19:26;;;;;;;10.57;2.95;;;18.50;53.50;;;;;;5982853;29;20429;-70
2022/04/16 04:22:27;;;;;;;8.73;2.75;;;18.40;53.40;;;;;;5985116;29;20050;-70
2022/04/16 04:25:28;;;;;;;9.07;2.58;;;18.30;53.40;;;;;;5968295;29;20034;-70
2022/04/16 04:28:29;;;;;;;8.60;3.00;;;18.30;53.50;;;;;;5988246;29;20050;-70
2022/04/16 04:31:31;;;;;;;12.77;3.05;;;18.30;53.60;;;;;;5979549;29;20126;-70
2022/04/16 04:34:32;;;;;;;6.43;2.95;;;18.20;53.60;;;;;;5986268;29;20038;-70
2022/04/16 04:37:34;;;;;;;5.90;3.30;;;18.20;53.70;;;;;;5985633;29;20096;-71
2022/04/16 04:40:35;;;;;;;5.60;2.55;;;18.20;53.70;;;;;;5980049;29;20045;-71
2022/04/16 04:43:36;;;;;;;4.70;2.88;;;18.10;53.60;;;;;;5987801;29;20514;-71
2022/04/16 04:46:38;;;;;;;5.45;2.95;;;18.20;53.70;;;;;;5980104;29;20050;-71
2022/04/16 04:49:39;;;;;;;5.68;3.15;;;18.20;53.80;;;;;;5984602;29;20125;-71
2022/04/16 04:52:41;;;;;;;9.38;3.08;;;18.20;53.80;;;;;;5983916;29;20380;-71
2022/04/16 04:55:42;;;;;;;11.13;3.03;;;18.20;54.00;;;;;;5984515;29;20034;-71
2022/04/16 04:58:43;;;;;;;5.97;3.25;;;18.20;54.00;;;;;;5986795;29;20381;-71
2022/04/16 05:01:44;;;;;;;6.97;3.60;;;18.20;54.10;;;;;;5984730;29;20058;-70
2022/04/16 05:04:46;;;;;;;6.53;3.03;;;18.20;54.30;;;;;;5963686;29;20081;-71
2022/04/16 05:07:47;;;;;;;5.57;3.42;;;18.10;54.40;;;;;;5968556;29;20061;-70
2022/04/16 05:10:48;;;;;;;7.80;3.22;;;18.10;54.50;;;;;;5987316;29;20038;-71
2022/04/16 05:13:49;;;;;;;6.80;3.40;;;18.10;54.70;;;;;;5965735;29;20179;-71
2022/04/16 05:16:50;;;;;;;13.75;3.22;;;18.10;54.70;;;;;;5982758;29;20058;-71
2022/04/16 05:19:51;;;;;;;8.02;3.00;;;18.10;54.60;;;;;;5979914;29;20420;-72
2022/04/16 05:22:52;;;;;;;8.10;3.22;;;18.00;54.60;;;;;;5984135;29;20035;-71
2022/04/16 05:25:53;;;;;;;8.85;2.80;;;18.00;54.70;;;;;;5981002;29;20524;-69
2022/04/16 05:28:56;;;;;;;5.20;2.90;;;18.00;54.60;;;;;;5976473;29;20070;-70
2022/04/16 05:31:57;;;;;;;8.32;3.22;;;18.00;54.60;;;;;;5984956;29;20114;-70
2022/04/16 05:34:58;;;;;;;9.18;3.58;;;17.90;54.60;;;;;;5976194;29;20058;-70
2022/04/16 05:37:59;;;;;;;4.00;2.75;;;18.00;54.60;;;;;;5976862;29;20038;-70
2022/04/16 05:41:01;;;;;;;12.25;3.30;;;18.00;54.60;;;;;;5979205;29;20042;-70
2022/04/16 05:44:03;;;;;;;5.95;3.00;;;18.00;54.60;;;;;;5975950;29;20035;-70
2022/04/16 05:47:05;;;;;;;10.45;3.92;;;18.00;54.80;;;;;;5979658;29;20050;-69
2022/04/16 05:50:07;;;;;;;4.72;2.97;;;18.00;54.80;;;;;;5979700;29;20035;-69
2022/04/16 05:53:10;;;;;;;5.20;3.03;;;18.00;54.90;;;;;;5990273;29;20062;-70
2022/04/16 05:56:12;;;;;;;13.40;3.75;;;18.00;54.90;;;;;;5980337;29;20457;-70
2022/04/16 05:59:13;;;;;;;7.10;3.55;;;18.00;54.90;;;;;;5967188;29;20141;-70
2022/04/16 06:02:14;;;;;;;7.63;3.78;;;17.90;54.90;;;;;;5967169;29;20054;-70
2022/04/16 06:05:16;;;;;;;13.63;3.28;;;18.00;54.90;;;;;;5976342;29;20049;-70
2022/04/16 06:08:17;;;;;;;7.28;3.92;;;18.00;55.00;;;;;;5982213;29;20476;-70
2022/04/16 06:11:20;;;;;;;11.27;3.95;;;18.00;55.00;;;;;;5982437;29;20057;-70
2022/04/16 06:14:21;;;;;;;5.30;3.13;;;18.00;55.00;;;;;;5977095;29;20062;-70
2022/04/16 06:17:22;;;;;;;7.95;3.35;;;18.00;55.10;;;;;;5965875;29;20039;-71
2022/04/16 06:20:23;;;;;;;11.07;3.58;;;17.90;55.20;;;;;;5977895;29;20046;-71
2022/04/16 06:23:24;;;;;;;9.43;3.67;;;17.90;55.20;;;;;;5977660;29;20049;-71
2022/04/16 06:26:29;;;;;;;13.52;4.18;;;17.90;55.20;;;;;;5980310;29;20353;-70
2022/04/16 06:29:30;;;;;;;7.03;3.53;;;18.00;55.20;;;;;;5978511;29;20070;-71
2022/04/16 06:32:31;;;;;;;7.15;3.42;;;18.10;55.10;;;;;;5981300;29;20038;-71
2022/04/16 06:35:32;;;;;;;10.07;3.90;;;18.20;55.10;;;;;;5981631;29;20048;-71
2022/04/16 06:38:33;;;;;;;6.20;3.78;;;18.30;54.80;;;;;;5977212;29;20046;-70
2022/04/16 06:41:34;;;;;;;14.25;3.58;;;18.30;54.70;;;;;;5991378;29;20062;-70
2022/04/16 06:44:35;;;;;;;11.88;3.78;;;18.40;54.50;;;;;;5988484;29;20387;-70
2022/04/16 06:47:36;;;;;;;7.55;3.67;;;18.50;54.40;;;;;;5978076;29;20125;-71
2022/04/16 06:50:37;;;;;;;9.70;4.20;;;18.60;54.30;;;;;;5974542;29;20054;-71
2022/04/16 06:53:38;;;;;;;6.55;3.65;;;18.70;54.20;;;;;;5984032;29;20043;-71
2022/04/16 06:56:39;;;;;;;9.85;4.00;;;18.80;54.00;;;;;;5969957;29;20381;-70
2022/04/16 06:59:41;;;;;;;4.82;3.33;;;18.90;53.80;;;;;;5985972;29;20038;-70
2022/04/16 07:02:42;;;;;;;7.50;3.38;;;19.00;53.70;;;;;;5970262;29;20053;-71
2022/04/16 07:05:43;;;;;;;14.20;4.05;;;19.00;53.60;;;;;;5983609;29;20042;-71
2022/04/16 07:08:44;;;;;;;6.00;3.70;;;19.00;53.60;;;;;;5991985;29;20050;-71
2022/04/16 07:11:45;;;;;;;6.82;4.03;;;19.00;53.60;;;;;;5974005;29;20054;-70
2022/04/16 07:14:46;;;;;;;9.25;3.72;;;19.00;53.60;;;;;;5969639;29;20046;-72
2022/04/16 07:17:48;;;;;;;10.88;4.28;;;19.00;53.50;;;;;;5950930;29;20070;-72
2022/04/16 07:20:49;;;;;;;12.80;4.60;;;19.00;53.40;;;;;;5983761;29;20054;-71
2022/04/16 07:23:50;;;;;;;11.85;4.03;;;19.10;53.30;;;;;;5988592;29;20062;-71
2022/04/16 07:26:53;;;;;;;12.13;4.10;;;19.20;53.10;;;;;;5967240;29;20049;-70
2022/04/16 07:29:58;;;;;;;12.98;3.80;;;19.30;53.00;;;;;;5978213;29;20035;-70
2022/04/16 07:32:59;;;;;;;7.30;3.33;;;19.40;52.50;;;;;;5979816;29;20220;-71
2022/04/16 07:36:02;;;;;;;13.60;3.10;;;19.50;52.10;;;;;;5979782;29;20079;-70
2022/04/16 07:39:03;;;;;;;6.00;3.10;;;19.60;51.60;;;;;;5991597;29;20038;-70
2022/04/16 07:42:05;;;;;;;5.25;2.88;;;19.70;51.80;;;;;;5990468;29;20049;-70
2022/04/16 07:45:07;;;;;;;10.10;3.78;;;19.80;50.70;;;;;;5981463;29;20043;-70
2022/04/16 07:48:08;;;;;;;6.78;3.47;;;19.90;50.50;;;;;;5985607;29;20042;-71
2022/04/16 07:51:09;;;;;;;5.82;3.10;;;20.00;50.20;;;;;;5969961;29;20045;-71
2022/04/16 07:54:10;;;;;;;8.90;3.20;;;20.10;50.00;;;;;;5976987;29;20038;-70
2022/04/16 07:57:13;;;;;;;4.05;2.72;;;20.20;49.90;;;;;;5980888;29;20540;-70
2022/04/16 08:00:15;;;;;;;7.75;2.95;;;20.30;49.60;;;;;;5983928;29;20384;-71
2022/04/16 08:03:16;;;;;;;7.65;2.80;;;20.50;49.40;;;;;;5982403;29;20082;-70
2022/04/16 08:06:17;;;;;;;3.53;2.55;;;20.70;49.10;;;;;;5954309;29;20469;-70
2022/04/16 08:09:18;;;;;;;10.57;3.13;;;20.80;48.50;;;;;;5966023;29;20100;-70
2022/04/16 08:12:19;;;;;;;11.23;3.25;;;20.90;48.00;;;;;;5983810;29;20473;-70
2022/04/16 08:15:20;;;;;;;4.70;2.50;;;21.10;47.20;;;;;;5984324;29;20130;-70
2022/04/16 08:18:21;;;;;;;11.35;3.67;;;21.20;46.80;;;;;;5985438;29;20058;-71
2022/04/16 08:21:22;;;;;;;6.45;2.92;;;21.30;46.60;;;;;;5993878;29;20034;-71
2022/04/16 08:24:39;;;;;;;9.80;3.05;;;21.40;46.20;;;;;;5979120;29;20504;-71
2022/04/16 08:27:42;;;;;;;7.57;2.85;;;21.50;45.80;;;;;;5976623;29;20459;-71
2022/04/16 08:30:43;;;;;;;5.40;3.30;;;21.60;45.20;;;;;;5981909;29;20449;-71
2022/04/16 08:33:44;;;;;;;5.07;2.92;;;21.70;45.10;;;;;;5983236;29;20095;-71
2022/04/16 08:36:45;;;;;;;4.50;3.20;;;21.90;44.90;;;;;;5984905;29;20042;-71
2022/04/16 08:39:46;;;;;;;3.53;2.47;;;22.00;44.60;;;;;;5979028;29;20122;-71
2022/04/16 08:42:52;;;;;;;10.20;2.80;;;22.10;43.70;;;;;;5978816;29;20042;-71
2022/04/16 08:45:55;;;;;;;5.70;2.42;;;22.10;43.40;;;;;;5983155;29;20035;-71
2022/04/16 08:48:57;;;;;;;9.50;2.78;;;22.20;43.30;;;;;;5965422;29;20079;-71
2022/04/16 08:51:59;;;;;;;4.63;2.72;;;22.30;42.90;;;;;;5981944;29;20467;-71
2022/04/16 08:55:03;;;;;;;4.38;2.85;;;22.40;42.70;;;;;;5983816;29;20079;-71
2022/04/16 08:58:04;;;;;;;4.80;2.60;;;22.50;42.50;;;;;;5989418;29;20046;-70
2022/04/16 09:01:05;;;;;;;6.50;2.97;;;22.60;41.80;;;;;;5982267;29;20046;-73
2022/04/16 09:04:06;;;;;;;13.00;2.90;;;22.60;41.00;;;;;;5987358;29;20416;-71
2022/04/16 09:07:07;;;;;;;11.80;2.80;;;22.60;41.10;;;;;;5978353;29;20043;-72
2022/04/16 09:10:09;;;;;;;7.72;2.63;;;22.50;41.20;;;;;;5978718;29;20579;-72
2022/04/16 09:13:12;;;;;;;6.25;3.80;;;22.60;41.30;;;;;;5983853;29;20047;-72
2022/04/16 09:16:13;;;;;;;12.60;3.05;;;22.80;41.10;;;;;;5982894;29;20110;-73
2022/04/16 09:19:21;;;;;;;4.45;2.80;;;22.90;40.90;;;;;;5983567;29;20114;-72
2022/04/16 09:22:33;;;;;;;6.90;3.35;;;23.00;40.90;;;;;;5967387;29;20038;-72
2022/04/16 09:25:34;;;;;;;7.45;3.83;;;23.10;40.80;;;;;;5988290;29;20615;-71
2022/04/16 09:28:44;;;;;;;5.68;3.40;;;23.30;40.60;;;;;;5984789;29;20133;-70
2022/04/16 09:31:49;;;;;;;10.60;3.63;;;23.40;40.40;;;;;;5950102;29;20061;-72
2022/04/16 09:34:52;;;;;;;5.53;3.17;;;23.50;40.20;;;;;;5981263;29;20042;-71
2022/04/16 09:38:00;;;;;;;7.63;2.90;;;23.60;40.40;;;;;;5970037;29;20469;-72
2022/04/16 09:41:08;;;;;;;6.72;3.17;;;23.70;39.90;;;;;;5965589;29;20468;-71
2022/04/16 09:44:21;;;;;;;6.50;3.05;;;23.80;39.50;;;;;;5980064;29;20121;-71
2022/04/16 09:47:26;;;;;;;12.10;3.17;;;23.80;39.50;;;;;;5965199;29;20038;-73
2022/04/16 09:50:32;;;;;;;6.15;2.78;;;24.00;39.50;;;;;;5984787;29;20034;-70
2022/04/16 09:53:36;;;;;;;4.55;2.58;;;24.00;39.10;;;;;;5984678;29;20080;-72
2022/04/16 09:56:48;;;;;;;5.05;2.67;;;24.00;38.80;;;;;;5984802;29;20446;-71
2022/04/16 09:59:53;;;;;;;8.52;2.70;;;24.00;38.60;;;;;;5967063;29;20054;-72
2022/04/16 10:02:54;;;;;;;4.82;2.10;;;24.10;38.60;;;;;;5983624;29;20049;-77
2022/04/16 10:05:59;;;;;;;2.78;2.13;;;24.10;38.40;;;;;;5967339;29;20121;-73
2022/04/16 10:09:13;;;;;;;4.88;2.28;;;24.20;38.10;;;;;;5968158;29;20038;-71
2022/04/16 10:15:21;;;;;;;8.13;2.75;;;24.30;38.20;;;;;;5979328;29;20046;-71
2022/04/16 10:18:23;;;;;;;12.00;2.42;;;24.40;38.00;;;;;;5978204;29;20141;-72
2022/04/16 10:21:33;;;;;;;5.85;2.13;;;24.50;37.70;;;;;;5982761;29;20439;-73
2022/04/16 10:24:34;;;;;;;4.88;2.70;;;24.50;37.60;;;;;;5991660;29;20046;-71
2022/04/16 10:27:42;;;;;;;5.50;2.15;;;24.60;37.50;;;;;;5986906;29;20129;-72
2022/04/16 10:30:52;;;;;;;3.65;2.33;;;24.60;37.40;;;;;;5988961;29;20170;-71
2022/04/16 10:33:58;;;;;;;5.00;2.10;;;24.70;37.20;;;;;;5970431;29;20058;-71
2022/04/16 10:36:59;;;;;;;2.80;2.00;;;24.80;37.10;;;;;;5988688;29;20034;-73
2022/04/16 10:40:00;;;;;;;6.85;2.40;;;24.80;36.60;;;;;;5971215;29;20109;-72
2022/04/16 10:43:01;;;;;;;8.55;2.88;;;24.90;36.70;;;;;;5984668;29;20380;-72
2022/04/16 10:46:04;;;;;;;4.70;2.45;;;24.90;36.50;;;;;;5988109;29;20110;-71
2022/04/16 10:49:09;;;;;;;4.82;2.15;;;25.30;35.90;;;;;;5979786;29;20095;-72
2022/04/16 10:52:26;;;;;;;8.57;2.30;;;25.80;35.00;;;;;;5972513;29;20038;-71
2022/04/16 10:55:31;;;;;;;8.18;2.10;;;26.20;34.20;;;;;;5971246;29;20129;-71
2022/04/16 10:58:33;;;;;;;5.25;2.30;;;26.60;33.70;;;;;;5984928;29;20094;-72
2022/04/16 11:01:34;;;;;;;4.47;2.15;;;27.00;33.30;;;;;;5986896;29;20042;-71
2022/04/16 11:04:37;;;;;;;2.58;1.83;;;27.40;32.80;;;;;;5969575;29;20103;-72
2022/04/16 11:07:39;;;;;;;4.18;2.05;;;27.70;32.20;;;;;;5992317;29;20046;-72
2022/04/16 11:10:41;;;;;;;4.03;1.90;;;27.90;31.80;;;;;;5987518;29;20034;-72
2022/04/16 11:13:43;;;;;;;8.50;2.40;;;28.10;31.50;;;;;;5987779;29;20045;-72
2022/04/16 11:16:46;;;;;;;4.93;1.85;;;28.30;31.20;;;;;;5977880;29;20134;-72
2022/04/16 11:20:07;;;;;;;4.18;2.08;;;28.40;30.90;;;;;;5984385;29;20057;-71
2022/04/16 11:23:11;;;;;;;7.32;2.33;;;28.50;30.70;;;;;;5977153;29;20035;-72
2022/04/16 11:36:25;;;;;;;10.02;2.00;;;28.80;30.40;;;;;;5953720;29;20371;-72
2022/04/16 11:39:28;;;;;;;2.45;2.05;;;28.90;30.40;;;;;;5972257;29;20569;-73
2022/04/16 11:42:30;;;;;;;3.38;2.10;;;29.00;30.30;;;;;;5981429;29;20132;-72
2022/04/16 11:45:32;;;;;;;3.83;2.10;;;29.10;30.00;;;;;;5955327;29;20279;-72
2022/04/16 11:48:33;;;;;;;3.88;2.00;;;29.20;29.90;;;;;;5951738;29;20466;-72
2022/04/16 11:51:37;;;;;;;5.25;2.17;;;29.30;29.80;;;;;;5954147;29;20051;-72
2022/04/16 11:54:39;;;;;;;5.60;2.08;;;29.50;29.70;;;;;;5956310;29;20058;-72
2022/04/16 11:57:45;;;;;;;6.40;1.98;;;29.60;29.40;;;;;;5954952;29;20038;-72
2022/04/16 12:00:51;;;;;;;5.78;2.60;;;29.80;29.20;;;;;;5952707;29;20042;-72
2022/04/16 12:03:57;;;;;;;4.97;1.65;;;30.10;28.90;;;;;;5955309;29;20050;-72
2022/04/16 12:06:58;;;;;;;4.90;1.77;;;30.40;28.50;;;;;;5950118;29;20039;-71
2022/04/16 12:10:02;;;;;;;3.78;1.70;;;30.90;28.20;;;;;;5980383;29;20354;-71
2022/04/16 12:13:12;;;;;;;4.80;2.00;;;31.30;27.70;;;;;;5959665;29;20058;-71
2022/04/16 12:16:13;;;;;;;5.57;1.80;;;31.80;27.30;;;;;;5957356;29;20054;-72
2022/04/16 12:19:16;;;;;;;4.57;1.77;;;32.00;26.30;;;;;;5958124;29;20404;-73
2022/04/16 12:22:17;;;;;;;6.68;2.40;;;32.40;26.00;;;;;;5966474;29;20042;-72
2022/04/16 12:25:20;;;;;;;6.63;1.55;;;32.60;25.70;;;;;;5949445;29;20045;-71
2022/04/16 12:28:21;;;;;;;8.02;2.00;;;32.90;25.20;;;;;;5959432;29;20039;-72
2022/04/16 12:31:32;;;;;;;5.22;1.70;;;33.30;25.00;;;;;;5960630;29;20095;-73
2022/04/16 12:34:34;;;;;;;6.72;1.95;;;33.50;24.30;;;;;;5959566;29;20478;-72
2022/04/16 12:37:36;;;;;;;4.65;2.00;;;33.70;24.10;;;;;;5964220;29;20085;-71
2022/04/16 12:40:37;;;;;;;3.63;1.48;;;33.80;24.00;;;;;;5958470;29;20049;-72
2022/04/16 12:43:38;;;;;;;5.65;1.50;;;33.90;23.70;;;;;;5958879;29;20122;-72
2022/04/16 12:46:39;;;;;;;8.38;1.73;;;34.10;23.80;;;;;;5959523;29;20518;-71
2022/04/16 12:49:40;;;;;;;1.90;1.40;;;34.60;23.50;;;;;;5958754;29;20134;-72
2022/04/16 12:52:42;;;;;;;5.35;1.70;;;35.10;22.80;;;;;;5957153;29;20066;-73
2022/04/16 12:55:43;;;;;;;1.65;1.42;;;35.30;22.50;;;;;;5964587;29;20293;-73
2022/04/16 12:58:44;;;;;;;8.20;1.60;;;35.60;21.70;;;;;;5959190;29;20065;-72
2022/04/16 13:01:45;;;;;;;4.72;1.55;;;35.80;21.60;;;;;;5959774;29;20510;-72
2022/04/16 13:04:46;;;;;;;2.55;1.30;;;36.10;21.30;;;;;;5961675;29;20043;-72
2022/04/16 13:07:47;;;;;;;1.42;1.27;;;36.20;21.00;;;;;;5958897;29;20073;-72
2022/04/16 13:10:48;;;;;;;5.30;1.63;;;36.20;20.60;;;;;;5961114;29;20031;-72
2022/04/16 13:13:49;;;;;;;1.85;1.30;;;36.20;20.40;;;;;;5943318;29;20035;-72
2022/04/16 13:16:49;;;;;;;1.95;1.30;;;36.50;20.30;;;;;;5958477;29;20383;-71
2022/04/16 13:19:50;;;;;;;3.40;1.50;;;37.20;20.00;;;;;;5950393;29;20203;-72
2022/04/16 13:22:51;;;;;;;8.05;1.42;;;37.60;19.20;;;;;;5942899;29;20047;-72
2022/04/16 13:25:52;;;;;;;5.03;1.45;;;37.50;19.00;;;;;;5957865;29;20163;-71
2022/04/16 13:28:53;;;;;;;3.78;1.65;;;37.70;18.90;;;;;;5958515;29;20053;-72
2022/04/16 13:31:56;;;;;;;5.78;1.48;;;38.10;18.50;;;;;;5958595;29;20038;-72
2022/04/16 13:35:07;;;;;;;3.25;1.25;;;38.20;18.20;;;;;;5945088;29;20192;-72
2022/04/16 13:38:08;;;;;;;2.95;1.17;;;38.30;17.80;;;;;;5963218;29;20487;-72
2022/04/16 13:44:29;;;;;;;9.52;1.20;;;38.20;17.50;;;;;;5960873;29;20122;-72
2022/04/16 13:47:30;;;;;;;6.30;1.40;;;38.10;17.50;;;;;;5938787;29;20061;-72
2022/04/16 13:50:32;;;;;;;2.75;1.48;;;38.40;17.40;;;;;;5947464;29;20081;-72
2022/04/16 13:53:33;;;;;;;5.75;1.08;;;38.70;17.30;;;;;;5957630;29;20121;-71
2022/04/16 13:56:34;;;;;;;7.40;1.33;;;38.70;17.10;;;;;;5960676;29;20119;-72
2022/04/16 13:59:38;;;;;;;3.33;1.17;;;38.50;16.80;;;;;;5958336;29;20049;-72
2022/04/16 14:02:45;;;;;;;11.38;1.38;;;38.30;16.70;;;;;;5963071;29;20058;-72
2022/04/16 14:05:46;;;;;;;1.40;1.10;;;38.70;16.60;;;;;;5952858;29;20318;-72
2022/04/16 14:08:48;;;;;;;5.32;0.90;;;38.80;15.90;;;;;;5964095;29;20047;-72
2022/04/16 14:11:49;;;;;;;4.10;1.08;;;39.00;15.70;;;;;;5950386;29;20131;-73
2022/04/16 14:14:50;;;;;;;1.50;1.02;;;38.60;15.40;;;;;;5965902;29;20197;-73
2022/04/16 14:17:51;;;;;;;4.18;1.05;;;37.30;15.80;;;;;;5982467;29;20164;-72
2022/04/16 14:20:53;;;;;;;4.63;1.00;;;36.00;16.10;;;;;;5980665;29;20050;-72
2022/04/16 14:23:54;;;;;;;2.72;1.00;;;34.80;17.00;;;;;;5975163;29;20034;-71
2022/04/16 14:26:55;;;;;;;6.22;0.98;;;33.80;17.90;;;;;;5984132;29;20035;-72
2022/04/16 14:29:56;;;;;;;3.17;1.23;;;33.00;18.00;;;;;;5991201;29;20250;-72
2022/04/16 14:32:57;;;;;;;7.35;1.20;;;32.10;18.30;;;;;;5983467;29;20065;-72
2022/04/16 14:35:58;;;;;;;3.15;1.10;;;31.40;18.70;;;;;;5978141;29;20548;-72
2022/04/16 14:38:59;;;;;;;1.92;0.90;;;30.90;18.90;;;;;;5979694;29;20039;-72
2022/04/16 14:42:01;;;;;;;2.65;1.08;;;30.30;19.50;;;;;;5978166;29;20038;-71
2022/04/16 14:45:02;;;;;;;2.13;0.85;;;30.00;20.10;;;;;;5978073;29;20034;-73
2022/04/16 14:48:03;;;;;;;1.52;0.98;;;29.70;19.90;;;;;;5982557;29;20050;-72
2022/04/16 14:51:04;;;;;;;4.10;1.08;;;29.50;19.50;;;;;;5980618;29;20050;-71
2022/04/16 14:54:07;;;;;;;1.95;0.85;;;29.20;18.70;;;;;;5988415;29;20396;-71
2022/04/16 14:57:08;;;;;;;0.98;0.80;;;29.10;18.70;;;;;;5965990;29;20039;-71
2022/04/16 15:00:09;;;;;;;5.20;1.20;;;28.90;18.50;;;;;;5987067;29;20030;-72
2022/04/16 15:03:10;;;;;;;5.57;0.85;;;28.90;18.50;;;;;;5986756;29;20069;-71
2022/04/16 15:06:12;;;;;;;2.38;1.40;;;28.90;18.30;;;;;;5980847;29;20372;-72
2022/04/16 15:09:13;;;;;;;3.08;0.90;;;28.80;18.10;;;;;;5968324;29;20057;-72
2022/04/16 15:12:14;;;;;;;9.15;0.90;;;28.80;18.10;;;;;;5974333;29;20038;-72
2022/04/16 15:15:15;;;;;;;0.88;0.70;;;28.70;18.00;;;;;;5977114;29;20066;-71
2022/04/16 15:18:16;;;;;;;3.80;0.70;;;28.70;17.80;;;;;;5965059;29;20077;-72
2022/04/16 15:21:17;;;;;;;1.48;0.68;;;28.70;17.40;;;;;;5974469;29;20042;-71
2022/04/16 15:24:19;;;;;;;0.88;0.70;;;28.60;17.20;;;;;;5970623;29;20097;-72
2022/04/16 15:27:20;;;;;;;1.15;0.60;;;28.50;17.00;;;;;;5971195;29;20042;-72
2022/04/16 15:30:22;;;;;;;3.20;0.70;;;28.50;16.70;;;;;;5971992;29;20403;-72
2022/04/16 15:33:23;;;;;;;0.50;0.50;;;28.50;16.30;;;;;;5952922;29;20047;-72
2022/04/16 15:36:24;;;;;;;9.70;0.70;;;28.40;16.00;;;;;;5970976;29;20155;-72
2022/04/16 15:39:26;;;;;;;0.60;0.60;;;28.40;15.40;;;;;;5974537;29;20175;-72
2022/04/16 15:42:27;;;;;;;1.02;0.60;;;28.40;15.40;;;;;;5971900;29;20030;-71
2022/04/16 15:45:29;;;;;;;3.58;0.60;;;28.40;15.60;;;;;;5973041;29;20117;-72
2022/04/16 15:48:30;;;;;;;1.05;0.63;;;28.40;15.60;;;;;;5970977;29;20172;-71
2022/04/16 15:51:32;;;;;;;1.75;0.70;;;28.40;15.00;;;;;;5963252;29;20729;-74
2022/04/16 15:54:33;;;;;;;1.10;1.00;;;28.50;14.70;;;;;;5976579;29;20046;-71
2022/04/16 15:57:34;;;;;;;2.58;0.70;;;28.70;14.90;;;;;;5971220;29;20480;-71
2022/04/16 16:00:35;;;;;;;0.82;0.60;;;29.80;14.60;;;;;;5970909;29;21887;-71
2022/04/16 16:03:38;;;;;;;3.03;0.85;;;31.50;13.60;;;;;;5973200;29;20043;-71
2022/04/16 16:06:39;;;;;;;1.85;0.70;;;33.00;12.60;;;;;;5976970;29;20365;-72
2022/04/16 16:09:40;;;;;;;1.38;0.63;;;34.30;12.10;;;;;;5970831;29;20049;-72
2022/04/16 16:12:42;;;;;;;0.60;0.60;;;35.40;11.60;;;;;;5972362;29;20117;-72
2022/04/16 16:15:43;;;;;;;1.00;0.40;;;36.00;11.60;;;;;;5972356;29;20050;-72